Terminal Aerodrome Forecast
Issued by NWS Tampa Bay Area, FL

Home | Current Version | Previous Version | Text Only | Print | Product List | Glossary On
Versions: 1 2 3 4 5 6 7 8 9 10 11 12 13 14 15 16 17 18 19 20 21 22 23 24 25 26
222
FTUS42 KTBW 112340
TAFTPA
TAF
KTPA 112340Z 1200/1306 VRB03KT P6SM FEW250
     FM121400 26010KT P6SM SCT030 BKN250
     FM121700 27014G22KT P6SM SCT035 SCT250
     FM122300 30013KT P6SM FEW035 SCT250
     FM130400 36009KT P6SM SKC=

USA.gov is the U.S. government's official web portal to all federal, state and local government web resources and services.